createdAt,value
2024-03-16T00:00:52.583Z,97967.88
2024-03-16T00:02:24.313Z,97966.41
2024-03-16T00:03:56.065Z,97978.19
2024-03-16T00:05:28.782Z,97975.25
2024-03-16T00:07:00.614Z,97980.97
2024-03-16T00:08:32.413Z,97977.06
2024-03-16T00:10:04.563Z,97979.03
2024-03-16T00:11:37.019Z,97976.56
2024-03-16T00:13:08.864Z,97968.69
2024-03-16T00:14:40.596Z,97977.06
2024-03-16T00:16:12.885Z,97975.56
2024-03-16T00:17:44.640Z,97976.72
2024-03-16T00:19:16.470Z,97977.38
2024-03-16T00:20:48.158Z,97984.41
2024-03-16T00:22:19.902Z,97975.56
2024-03-16T00:23:51.655Z,97981.63
2024-03-16T00:25:23.533Z,97977.88
2024-03-16T00:26:55.409Z,97978.03
2024-03-16T00:28:27.132Z,97981.31
2024-03-16T00:29:58.803Z,97967.41
2024-03-16T00:31:30.496Z,97965.59
2024-03-16T00:33:03.041Z,97973.63
2024-03-16T00:34:34.709Z,97975.06
2024-03-16T00:36:06.584Z,97977.88
2024-03-16T00:37:38.235Z,97977.38
2024-03-16T00:39:16.528Z,97979.00
2024-03-16T00:40:48.543Z,97977.03
2024-03-16T00:42:21.240Z,97977.72
2024-03-16T00:43:53.561Z,97972.13
2024-03-16T00:45:25.337Z,97976.56
2024-03-16T00:46:57.038Z,97972.97
2024-03-16T00:48:28.747Z,97973.94
2024-03-16T00:50:00.503Z,97967.22
2024-03-16T00:51:34.204Z,97972.97
2024-03-16T00:53:05.933Z,97978.63
2024-03-16T00:54:39.522Z,97974.59
2024-03-16T00:56:11.259Z,97963.13
2024-03-16T00:57:42.992Z,97963.78
2024-03-16T00:59:15.278Z,97965.59
2024-03-16T01:00:46.948Z,97961.00
2024-03-16T01:02:18.973Z,97974.41
2024-03-16T01:03:50.709Z,97973.78
2024-03-16T01:05:23.189Z,97971.13
2024-03-16T01:06:54.951Z,97966.09
2024-03-16T01:08:26.653Z,97965.44
2024-03-16T01:09:58.435Z,97960.34
2024-03-16T01:11:30.822Z,97978.97
2024-03-16T01:13:02.542Z,97967.81
2024-03-16T01:14:34.379Z,97976.50
2024-03-16T01:16:06.212Z,97968.97
2024-03-16T01:17:38.493Z,97979.00
2024-03-16T01:19:10.190Z,97962.63
2024-03-16T01:20:45.294Z,97977.03
2024-03-16T01:22:16.916Z,97978.50
2024-03-16T01:23:48.620Z,97977.16
2024-03-16T01:25:20.787Z,97986.00
2024-03-16T01:26:52.517Z,97979.16
2024-03-16T01:28:24.202Z,97970.97
2024-03-16T01:29:55.840Z,97975.56
2024-03-16T01:31:27.681Z,97972.25
2024-03-16T01:32:59.312Z,97980.53
2024-03-16T01:34:31.032Z,97977.75
2024-03-16T01:36:04.487Z,97976.66
2024-03-16T01:37:36.095Z,97971.88
2024-03-16T01:39:08.048Z,97974.22
2024-03-16T01:40:39.755Z,97971.94
2024-03-16T01:42:11.440Z,97964.03
2024-03-16T01:43:47.400Z,97970.44
2024-03-16T01:45:19.387Z,97967.31
2024-03-16T01:46:50.992Z,97979.72
2024-03-16T01:48:22.587Z,97959.84
2024-03-16T01:49:54.178Z,97975.88
2024-03-16T01:51:25.817Z,97970.00
2024-03-16T01:52:58.213Z,97970.47
2024-03-16T01:54:29.945Z,97970.34
2024-03-16T01:56:01.677Z,97966.59
2024-03-16T01:57:33.374Z,97955.31
2024-03-16T01:59:05.128Z,97963.03
2024-03-16T02:00:37.103Z,97958.78
2024-03-16T02:02:37.394Z,97958.94
2024-03-16T02:04:09.050Z,97963.19
2024-03-16T02:05:42.897Z,97965.25
2024-03-16T02:07:14.644Z,97963.75
2024-03-16T02:08:46.434Z,97959.91
2024-03-16T02:10:18.885Z,97961.34
2024-03-16T02:11:51.063Z,97963.34
2024-03-16T02:13:22.816Z,97951.41
2024-03-16T02:14:54.438Z,97955.00
2024-03-16T02:16:26.168Z,97960.22
2024-03-16T02:17:57.804Z,97963.13
2024-03-16T02:19:29.449Z,97956.25
2024-03-16T02:21:01.097Z,97955.63
2024-03-16T02:22:32.698Z,97950.28
2024-03-16T02:24:04.559Z,97950.22
2024-03-16T02:25:36.263Z,97943.19
2024-03-16T02:27:07.981Z,97954.91
2024-03-16T02:28:39.651Z,97947.06
2024-03-16T02:30:12.013Z,97944.44
2024-03-16T02:31:44.664Z,97947.44
2024-03-16T02:33:16.714Z,97948.75
2024-03-16T02:34:48.448Z,97951.06
2024-03-16T02:36:20.077Z,97954.88
2024-03-16T02:37:51.751Z,97951.13
2024-03-16T02:39:23.376Z,97950.91
2024-03-16T02:40:55.016Z,97946.91
2024-03-16T02:42:26.765Z,97954.19
2024-03-16T02:43:58.387Z,97957.47
2024-03-16T02:45:30.289Z,97954.09
2024-03-16T02:47:02.455Z,97962.25
2024-03-16T02:48:34.182Z,97954.47
2024-03-16T02:50:06.355Z,97960.81
2024-03-16T02:51:38.286Z,97964.22
2024-03-16T02:53:10.062Z,97964.06
2024-03-16T02:54:41.895Z,97962.72
2024-03-16T02:56:16.125Z,97962.22
2024-03-16T02:57:47.798Z,97964.75
2024-03-16T02:59:19.639Z,97962.50
2024-03-16T03:00:51.299Z,97960.69
2024-03-16T03:02:25.604Z,97959.00
2024-03-16T03:03:57.531Z,97959.22
2024-03-16T03:05:29.181Z,97958.25
2024-03-16T03:07:00.801Z,97955.69
2024-03-16T03:08:33.516Z,97946.06
2024-03-16T03:10:07.853Z,97943.94
2024-03-16T03:11:39.710Z,97949.25
2024-03-16T03:13:11.427Z,97944.53
2024-03-16T03:14:43.167Z,97947.00
2024-03-16T03:16:20.445Z,97936.81
2024-03-16T03:17:52.123Z,97935.56
2024-03-16T03:19:24.087Z,97946.72
2024-03-16T03:20:56.286Z,97944.75
2024-03-16T03:22:27.982Z,97951.00
2024-03-16T03:24:00.818Z,97945.56
2024-03-16T03:25:34.856Z,97948.47
2024-03-16T03:27:07.165Z,97943.31
2024-03-16T03:28:39.059Z,97944.16
2024-03-16T03:30:11.576Z,97941.88
2024-03-16T03:31:43.203Z,97947.47
2024-03-16T03:33:14.828Z,97950.41
2024-03-16T03:34:46.461Z,97950.38
2024-03-16T03:36:18.082Z,97951.09
2024-03-16T03:37:49.671Z,97953.38
2024-03-16T03:39:21.306Z,97954.53
2024-03-16T03:40:52.934Z,97947.50
2024-03-16T03:42:30.725Z,97950.78
2024-03-16T03:44:10.320Z,97956.97
2024-03-16T03:45:44.850Z,97948.31
2024-03-16T03:47:17.186Z,97948.50
2024-03-16T03:49:01.117Z,97947.06
2024-03-16T03:50:39.818Z,97958.16
2024-03-16T03:52:11.550Z,97962.41
2024-03-16T03:53:43.225Z,97958.34
2024-03-16T03:55:14.892Z,97956.38
2024-03-16T03:56:46.568Z,97960.66
2024-03-16T03:58:22.174Z,97961.13
2024-03-16T03:59:53.790Z,97968.34
2024-03-16T04:01:25.536Z,97967.72
2024-03-16T04:02:57.191Z,97964.41
2024-03-16T04:04:28.873Z,97975.41
2024-03-16T04:06:00.497Z,97975.56
2024-03-16T04:07:32.323Z,97972.59
2024-03-16T04:09:04.321Z,97970.16
2024-03-16T04:10:36.954Z,97967.53
2024-03-16T04:12:10.483Z,97964.09
2024-03-16T04:13:42.902Z,97965.41
2024-03-16T04:15:15.479Z,97979.00
2024-03-16T04:16:48.811Z,97969.50
2024-03-16T04:18:20.513Z,97973.25
2024-03-16T04:19:52.888Z,97970.47
2024-03-16T04:21:24.522Z,97980.44
2024-03-16T04:22:56.250Z,97979.81
2024-03-16T04:24:27.981Z,97978.66
2024-03-16T04:25:59.695Z,97979.47
2024-03-16T04:27:31.645Z,97989.09
2024-03-16T04:29:03.850Z,97993.72
2024-03-16T04:30:36.108Z,97985.19
2024-03-16T04:32:08.107Z,97987.50
2024-03-16T04:33:39.725Z,97997.31
2024-03-16T04:35:12.756Z,97995.97
2024-03-16T04:36:44.435Z,97998.59
2024-03-16T04:38:16.077Z,97995.97
2024-03-16T04:39:49.060Z,97996.50
2024-03-16T04:41:21.011Z,97998.28
2024-03-16T04:42:52.792Z,97988.16
2024-03-16T04:44:24.748Z,97988.16
2024-03-16T04:45:56.515Z,97987.50
2024-03-16T04:47:28.128Z,97992.44
2024-03-16T04:49:01.161Z,97984.88
2024-03-16T04:50:32.832Z,97993.41
2024-03-16T04:52:04.569Z,97992.09
2024-03-16T04:53:36.289Z,97994.53
2024-03-16T04:55:08.347Z,97996.66
2024-03-16T04:56:40.146Z,97998.63
2024-03-16T04:58:12.009Z,98006.81
2024-03-16T04:59:43.776Z,98010.94
2024-03-16T05:01:16.507Z,98025.16
2024-03-16T05:02:49.458Z,98030.72
2024-03-16T05:04:21.050Z,98033.66
2024-03-16T05:05:52.758Z,98031.53
2024-03-16T05:07:24.395Z,98017.63
2024-03-16T05:08:55.996Z,98036.59
2024-03-16T05:10:27.749Z,98026.78
2024-03-16T05:11:59.445Z,98032.00
2024-03-16T05:13:33.441Z,98029.38
2024-03-16T05:15:06.757Z,98034.75
2024-03-16T05:16:40.825Z,98039.47
2024-03-16T05:18:15.372Z,98032.16
2024-03-16T05:19:47.825Z,98032.09
2024-03-16T05:21:20.182Z,98039.91
2024-03-16T05:22:51.782Z,98045.31
2024-03-16T05:24:23.390Z,98044.84
2024-03-16T05:25:55.107Z,98038.78
2024-03-16T05:27:27.230Z,98046.47
2024-03-16T05:28:59.112Z,98045.47
2024-03-16T05:30:31.103Z,98048.31
2024-03-16T05:32:04.390Z,98040.94
2024-03-16T05:33:36.086Z,98045.88
2024-03-16T05:35:09.781Z,98055.06
2024-03-16T05:36:41.609Z,98056.84
2024-03-16T05:38:13.263Z,98062.56
2024-03-16T05:39:45.115Z,98054.69
2024-03-16T05:41:17.075Z,98055.00
2024-03-16T05:42:48.699Z,98057.81
2024-03-16T05:44:20.298Z,98059.41
2024-03-16T05:45:53.493Z,98054.22
2024-03-16T05:47:25.269Z,98067.78
2024-03-16T05:48:58.060Z,98066.00
2024-03-16T05:50:29.756Z,98060.28
2024-03-16T05:52:01.408Z,98059.50
2024-03-16T05:53:33.198Z,98067.13
2024-03-16T05:55:05.831Z,98077.06
2024-03-16T05:56:38.636Z,98069.13
2024-03-16T05:58:10.390Z,98070.97
2024-03-16T05:59:42.108Z,98076.03
2024-03-16T06:01:13.816Z,98069.03
2024-03-16T06:02:45.463Z,98070.22
2024-03-16T06:04:19.038Z,98074.09
2024-03-16T06:05:50.690Z,98073.66
2024-03-16T06:07:22.436Z,98070.72
2024-03-16T06:08:54.171Z,98077.78
2024-03-16T06:10:25.826Z,98074.19
2024-03-16T06:11:57.572Z,98071.56
2024-03-16T06:13:29.247Z,98072.56
2024-03-16T06:15:00.898Z,98078.44
2024-03-16T06:16:32.511Z,98083.94
2024-03-16T06:18:04.722Z,98081.94
2024-03-16T06:19:36.363Z,98081.94
2024-03-16T06:21:11.042Z,98091.16
2024-03-16T06:22:43.033Z,98097.34
2024-03-16T06:24:14.934Z,98091.97
2024-03-16T06:25:51.060Z,98088.50
2024-03-16T06:27:23.576Z,98079.53
2024-03-16T06:29:06.828Z,98097.38
2024-03-16T06:30:38.843Z,98084.59
2024-03-16T06:32:10.605Z,98088.91
2024-03-16T06:33:46.857Z,98086.13
2024-03-16T06:35:18.634Z,98098.03
2024-03-16T06:36:53.233Z,98093.59
2024-03-16T06:38:26.052Z,98099.28
2024-03-16T06:39:57.958Z,98107.00
2024-03-16T06:41:29.632Z,98113.09
2024-03-16T06:43:01.429Z,98110.19
2024-03-16T06:44:33.535Z,98105.84
2024-03-16T06:46:06.877Z,98107.28
2024-03-16T06:47:38.593Z,98114.41
2024-03-16T06:49:10.383Z,98114.75
2024-03-16T06:50:42.096Z,98113.16
2024-03-16T06:52:14.107Z,98111.13
2024-03-16T06:53:48.464Z,98109.88
2024-03-16T06:55:20.726Z,98111.84
2024-03-16T06:56:52.629Z,98105.47
2024-03-16T06:58:25.736Z,98110.72
2024-03-16T06:59:57.333Z,98107.13
2024-03-16T07:01:29.984Z,98117.91
2024-03-16T07:03:01.713Z,98114.16
2024-03-16T07:04:33.411Z,98111.06
2024-03-16T07:06:07.605Z,98114.63
2024-03-16T07:07:39.313Z,98112.00
2024-03-16T07:09:12.243Z,98121.03
2024-03-16T07:10:47.514Z,98131.16
2024-03-16T07:12:19.235Z,98120.84
2024-03-16T07:13:50.870Z,98132.16
2024-03-16T07:15:22.679Z,98134.91
2024-03-16T07:16:56.083Z,98138.84
2024-03-16T07:18:28.184Z,98135.13
2024-03-16T07:20:07.576Z,98117.25
2024-03-16T07:21:39.349Z,98140.53
2024-03-16T07:23:10.981Z,98144.78
2024-03-16T07:24:42.686Z,98139.72
2024-03-16T07:26:14.574Z,98147.91
2024-03-16T07:27:46.287Z,98144.94
2024-03-16T07:29:17.969Z,98140.47
2024-03-16T07:30:55.922Z,98149.16
2024-03-16T07:32:27.611Z,98151.50
2024-03-16T07:34:02.409Z,98153.00
2024-03-16T07:35:36.630Z,98156.59
2024-03-16T07:37:08.403Z,98155.44
2024-03-16T07:38:40.100Z,98157.41
2024-03-16T07:40:15.399Z,98156.91
2024-03-16T07:41:47.161Z,98154.00
2024-03-16T07:43:19.169Z,98158.91
2024-03-16T07:44:50.857Z,98150.06
2024-03-16T07:46:22.585Z,98157.59
2024-03-16T07:47:54.327Z,98159.22
2024-03-16T07:49:26.130Z,98160.47
2024-03-16T07:51:01.184Z,98151.00
2024-03-16T07:52:34.492Z,98153.31
2024-03-16T07:54:10.092Z,98158.25
2024-03-16T07:55:41.795Z,98156.91
2024-03-16T07:57:13.547Z,98164.09
2024-03-16T07:58:45.214Z,98160.59
2024-03-16T08:00:16.918Z,98172.09
2024-03-16T08:01:48.713Z,98165.06
2024-03-16T08:03:20.554Z,98169.59
2024-03-16T08:04:52.165Z,98176.94
2024-03-16T08:06:23.855Z,98177.31
2024-03-16T08:07:55.556Z,98176.41
2024-03-16T08:09:27.795Z,98177.59
2024-03-16T08:10:59.517Z,98173.97
2024-03-16T08:12:33.456Z,98174.78
2024-03-16T08:14:09.666Z,98175.38
2024-03-16T08:15:41.345Z,98176.41
2024-03-16T08:17:12.987Z,98177.09
2024-03-16T08:18:46.300Z,98170.97
2024-03-16T08:20:18.289Z,98173.59
2024-03-16T08:21:50.260Z,98176.06
2024-03-16T08:23:21.962Z,98180.25
2024-03-16T08:24:53.727Z,98183.16
2024-03-16T08:26:25.364Z,98184.16
2024-03-16T08:27:58.140Z,98184.91
2024-03-16T08:29:29.899Z,98186.28
2024-03-16T08:31:01.878Z,98184.41
2024-03-16T08:32:34.169Z,98187.97
2024-03-16T08:34:05.886Z,98189.25
2024-03-16T08:35:37.560Z,98187.84
2024-03-16T08:37:09.213Z,98194.09
2024-03-16T08:38:40.887Z,98193.16
2024-03-16T08:40:17.088Z,98192.91
2024-03-16T08:41:49.186Z,98196.38
2024-03-16T08:43:20.978Z,98200.63
2024-03-16T08:44:52.838Z,98202.44
2024-03-16T08:46:27.797Z,98207.03
2024-03-16T08:48:00.035Z,98201.91
2024-03-16T08:49:32.486Z,98208.47
2024-03-16T08:51:05.827Z,98202.19
2024-03-16T08:52:38.461Z,98197.13
2024-03-16T08:54:11.854Z,98195.16
2024-03-16T08:55:43.722Z,98206.34
2024-03-16T08:57:15.331Z,98214.28
2024-03-16T08:58:47.842Z,98202.44
2024-03-16T09:00:20.071Z,98210.69
2024-03-16T09:01:51.861Z,98209.84
2024-03-16T09:03:23.598Z,98212.78
2024-03-16T09:04:58.040Z,98212.25
2024-03-16T09:06:29.722Z,98209.31
2024-03-16T09:08:02.216Z,98219.63
2024-03-16T09:09:33.968Z,98229.25
2024-03-16T09:11:05.706Z,98226.03
2024-03-16T09:12:37.697Z,98229.19
2024-03-16T09:14:09.667Z,98228.38
2024-03-16T09:15:41.380Z,98237.88
2024-03-16T09:17:13.042Z,98246.31
2024-03-16T09:18:46.235Z,98241.38
2024-03-16T09:20:18.034Z,98237.31
2024-03-16T09:21:50.429Z,98238.44
2024-03-16T09:23:22.129Z,98243.81
2024-03-16T09:24:53.889Z,98239.84
2024-03-16T09:26:25.741Z,98244.50
2024-03-16T09:27:57.390Z,98247.84
2024-03-16T09:29:29.377Z,98261.94
2024-03-16T09:31:05.369Z,98263.91
2024-03-16T09:32:38.213Z,98264.25
2024-03-16T09:34:11.234Z,98268.03
2024-03-16T09:35:43.412Z,98271.81
2024-03-16T09:37:15.731Z,98275.16
2024-03-16T09:38:48.678Z,98279.59
2024-03-16T09:40:20.558Z,98284.84
2024-03-16T09:41:52.275Z,98282.53
